Time;durP1;ratioP1;P1;durP2;ratioP2;P2;SDS_P1;SDS_P2;PMS_P1;PMS_P2;Temp;Humidity;BMP_temperature;BMP_pressure;BME280_temperature;BME280_humidity;BME280_pressure;Samples;Min_cycle;Max_cycle;Signal;HPM_P1;HPM_P2
2021/11/30 00:01:34;;;;;;;24.30;21.45;;;3.60;99.90;;;;;;4968760;28;20449;-86
2021/11/30 00:04:00;;;;;;;23.02;20.52;;;3.50;99.90;;;;;;4968755;28;20454;-83
2021/11/30 00:06:26;;;;;;;25.10;21.27;;;3.40;99.90;;;;;;4970047;28;20901;-84
2021/11/30 00:09:08;;;;;;;22.75;20.35;;;3.50;99.90;;;;;;4971503;28;20417;-86
2021/11/30 00:11:34;;;;;;;23.05;20.67;;;3.50;99.90;;;;;;4972761;28;21217;-87
2021/11/30 00:14:00;;;;;;;23.02;20.40;;;3.50;99.90;;;;;;4973573;28;20410;-86
2021/11/30 00:16:25;;;;;;;24.03;20.13;;;3.50;99.90;;;;;;4956162;28;20825;-85
2021/11/30 00:18:51;;;;;;;22.00;19.67;;;3.50;99.90;;;;;;4959879;28;20417;-85
2021/11/30 00:21:17;;;;;;;21.50;19.20;;;3.50;99.90;;;;;;4975379;28;20876;-84
2021/11/30 00:23:43;;;;;;;21.17;18.97;;;3.60;99.90;;;;;;4956080;28;20383;-84
2021/11/30 00:26:09;;;;;;;21.70;19.13;;;3.60;99.90;;;;;;4956450;28;20457;-84
2021/11/30 00:28:34;;;;;;;24.10;19.90;;;3.60;99.90;;;;;;4972998;28;20877;-84
2021/11/30 00:31:00;;;;;;;22.92;20.13;;;3.60;99.90;;;;;;4973586;28;20390;-87
2021/11/30 00:33:26;;;;;;;23.23;20.75;;;3.50;99.90;;;;;;4973393;28;20445;-88
2021/11/30 00:35:52;;;;;;;23.50;20.92;;;3.50;99.90;;;;;;4959416;28;20445;-83
2021/11/30 00:38:18;;;;;;;24.05;20.58;;;3.50;99.90;;;;;;4973167;28;20501;-85
2021/11/30 00:40:45;;;;;;;24.40;21.80;;;3.50;99.90;;;;;;4973262;28;20440;-87
2021/11/30 00:43:19;;;;;;;24.45;21.83;;;3.50;99.90;;;;;;4973587;28;20394;-84
2021/11/30 00:45:58;;;;;;;24.23;21.60;;;3.50;99.90;;;;;;4973232;28;20405;-85
2021/11/30 00:48:30;;;;;;;24.70;21.30;;;3.50;99.90;;;;;;4967098;28;20445;-86
2021/11/30 00:50:59;;;;;;;23.60;21.10;;;3.50;99.90;;;;;;4976975;28;20486;-86
2021/11/30 00:53:25;;;;;;;22.50;20.20;;;3.50;99.90;;;;;;4972705;28;20906;-84
2021/11/30 00:55:51;;;;;;;22.33;20.02;;;3.60;99.90;;;;;;4964974;28;20481;-87
2021/11/30 00:58:17;;;;;;;21.83;19.53;;;3.50;99.90;;;;;;4972841;28;20446;-85
2021/11/30 01:00:43;;;;;;;22.50;20.20;;;3.50;99.90;;;;;;4955712;28;20387;-84
2021/11/30 01:03:09;;;;;;;23.33;20.88;;;3.50;99.90;;;;;;4971479;28;20402;-82
2021/11/30 01:05:37;;;;;;;23.20;20.80;;;3.50;99.90;;;;;;4956656;28;20390;-85
2021/11/30 01:08:03;;;;;;;23.17;20.73;;;3.50;99.90;;;;;;4972316;28;20394;-86
2021/11/30 01:10:29;;;;;;;23.60;21.10;;;3.50;99.90;;;;;;4956368;28;20418;-83
2021/11/30 01:12:55;;;;;;;24.02;21.38;;;3.40;99.90;;;;;;4972221;28;20398;-87
2021/11/30 01:15:22;;;;;;;24.25;21.65;;;3.30;99.90;;;;;;4972063;28;20749;-84
2021/11/30 01:17:49;;;;;;;23.13;20.63;;;3.30;99.90;;;;;;4967781;28;20485;-82
2021/11/30 01:20:15;;;;;;;25.50;22.73;;;3.30;99.90;;;;;;4960897;28;20378;-86
2021/11/30 01:22:41;;;;;;;25.98;23.17;;;3.40;99.90;;;;;;4971679;28;20413;-84
2021/11/30 01:25:08;;;;;;;27.30;24.17;;;3.30;99.90;;;;;;4953474;29;20387;-85
2021/11/30 01:27:35;;;;;;;26.83;23.90;;;3.30;99.90;;;;;;4970359;28;20378;-84
2021/11/30 01:30:00;;;;;;;26.95;24.05;;;3.30;99.90;;;;;;4959011;28;20405;-83
2021/11/30 01:32:26;;;;;;;27.05;24.08;;;3.20;99.90;;;;;;4971680;28;20415;-84
2021/11/30 01:34:52;;;;;;;26.02;23.23;;;3.30;99.90;;;;;;4972110;28;20406;-83
2021/11/30 01:37:18;;;;;;;27.23;24.25;;;3.30;99.90;;;;;;4961549;28;20916;-86
2021/11/30 01:39:46;;;;;;;27.20;24.30;;;3.40;99.90;;;;;;4961686;28;20789;-87
2021/11/30 01:42:14;;;;;;;27.10;24.17;;;3.30;99.90;;;;;;4972853;28;20440;-86
2021/11/30 01:44:48;;;;;;;26.98;24.08;;;3.30;99.90;;;;;;4972061;28;20469;-83
2021/11/30 01:49:59;;;;;;;26.65;23.85;;;3.20;99.90;;;;;;4972354;28;20417;-85
2021/11/30 01:52:26;;;;;;;28.77;25.17;;;3.20;99.90;;;;;;4960975;28;20398;-87
2021/11/30 01:54:52;;;;;;;28.63;25.63;;;3.10;99.90;;;;;;4954653;28;20691;-83
2021/11/30 01:57:21;;;;;;;29.33;26.20;;;3.10;99.90;;;;;;4971876;28;20456;-83
2021/11/30 01:59:47;;;;;;;28.67;25.58;;;3.10;99.90;;;;;;4954422;28;20723;-88
2021/11/30 02:02:13;;;;;;;29.10;25.85;;;3.00;99.90;;;;;;4968210;28;20398;-89
2021/11/30 02:04:40;;;;;;;30.17;26.98;;;3.00;99.90;;;;;;4954183;28;20371;-85
2021/11/30 02:07:08;;;;;;;31.35;27.95;;;3.00;99.90;;;;;;4958398;28;20821;-84
2021/11/30 02:09:34;;;;;;;31.83;28.43;;;3.00;99.90;;;;;;4969893;28;20430;-86
2021/11/30 02:12:00;;;;;;;31.52;28.08;;;3.00;99.90;;;;;;4970209;28;20394;-84
2021/11/30 02:14:26;;;;;;;31.40;27.63;;;2.90;99.90;;;;;;4953943;28;20493;-85
2021/11/30 02:16:51;;;;;;;30.50;27.20;;;3.00;99.90;;;;;;4971088;28;20394;-85
2021/11/30 02:19:18;;;;;;;31.15;27.77;;;3.00;99.90;;;;;;4969922;28;20397;-84
2021/11/30 02:21:44;;;;;;;32.03;28.17;;;2.90;99.90;;;;;;4970700;28;20425;-86
2021/11/30 02:24:10;;;;;;;31.58;28.13;;;3.00;99.90;;;;;;4970127;28;20370;-86
2021/11/30 02:26:38;;;;;;;32.05;28.55;;;3.00;99.90;;;;;;4967441;28;20457;-82
2021/11/30 02:29:06;;;;;;;31.00;27.60;;;3.00;99.90;;;;;;4971303;28;20438;-84
2021/11/30 02:31:38;;;;;;;32.20;28.70;;;3.00;99.90;;;;;;4969965;28;20413;-85
2021/11/30 02:34:05;;;;;;;31.13;27.77;;;3.00;99.90;;;;;;4970498;28;20391;-83
2021/11/30 02:39:11;;;;;;;31.20;27.80;;;3.10;99.90;;;;;;4968517;28;20742;-86
2021/11/30 02:41:37;;;;;;;35.30;29.40;;;3.10;99.90;;;;;;4953853;28;20383;-85
2021/11/30 02:44:04;;;;;;;35.45;29.95;;;3.00;99.90;;;;;;4953715;28;20401;-88
2021/11/30 02:46:43;;;;;;;34.88;30.38;;;2.90;99.90;;;;;;4970216;28;20484;-85
2021/11/30 02:49:11;;;;;;;36.58;31.92;;;2.90;99.90;;;;;;4956208;28;21143;-86
2021/11/30 02:51:42;;;;;;;38.50;31.58;;;2.80;99.90;;;;;;4970537;28;20413;-84
2021/11/30 02:54:10;;;;;;;35.63;31.55;;;2.90;99.90;;;;;;4970801;28;20398;-86
2021/11/30 02:56:41;;;;;;;37.38;31.48;;;2.90;99.90;;;;;;4970840;28;20378;-86
2021/11/30 02:59:07;;;;;;;37.03;31.73;;;2.90;99.90;;;;;;4970682;28;20398;-83
2021/11/30 03:01:34;;;;;;;38.83;32.83;;;2.90;99.90;;;;;;4970136;28;20393;-85
2021/11/30 03:03:59;;;;;;;39.57;33.17;;;3.00;99.90;;;;;;4953578;28;20394;-85
2021/11/30 03:06:25;;;;;;;38.70;33.37;;;3.00;99.90;;;;;;4953469;28;20469;-85
2021/11/30 03:08:51;;;;;;;41.10;34.47;;;3.00;99.90;;;;;;4970505;28;20452;-85
2021/11/30 03:11:17;;;;;;;40.67;34.20;;;3.00;99.90;;;;;;4953429;28;20473;-84
2021/11/30 03:13:43;;;;;;;42.95;35.05;;;3.00;99.90;;;;;;4953426;28;20402;-87
2021/11/30 03:16:08;;;;;;;38.72;33.80;;;3.00;99.90;;;;;;4953779;28;21021;-84
2021/11/30 03:18:36;;;;;;;39.47;34.65;;;3.00;99.90;;;;;;4959467;28;20394;-85
2021/11/30 03:21:04;;;;;;;39.30;33.67;;;2.90;99.90;;;;;;4956638;28;20398;-85
2021/11/30 03:23:31;;;;;;;37.50;33.38;;;2.90;99.90;;;;;;4952483;28;20449;-84
2021/11/30 03:25:56;;;;;;;37.65;33.45;;;3.00;99.90;;;;;;4970312;28;20410;-86
2021/11/30 03:28:22;;;;;;;37.42;32.67;;;3.00;99.90;;;;;;4969580;28;20956;-87
2021/11/30 03:31:01;;;;;;;35.00;30.90;;;3.00;99.90;;;;;;4969490;28;20411;-83
2021/11/30 03:36:11;;;;;;;34.58;30.88;;;3.00;99.90;;;;;;4970108;28;20453;-86
2021/11/30 03:38:37;;;;;;;33.87;29.90;;;3.00;99.90;;;;;;4969881;28;20390;-82
2021/11/30 03:41:03;;;;;;;31.53;28.10;;;3.10;99.90;;;;;;4970616;28;20497;-87
2021/11/30 03:43:28;;;;;;;33.83;29.83;;;3.10;99.90;;;;;;4972129;28;20505;-83
2021/11/30 03:45:54;;;;;;;36.83;31.42;;;3.10;99.90;;;;;;4974366;28;20402;-84
2021/11/30 03:48:20;;;;;;;35.90;30.98;;;3.10;99.90;;;;;;4973972;28;20843;-85
2021/11/30 03:50:46;;;;;;;35.03;31.38;;;3.10;99.90;;;;;;4956929;28;20428;-85
2021/11/30 03:53:12;;;;;;;35.23;31.33;;;3.00;99.90;;;;;;4973563;28;20417;-83
2021/11/30 03:55:38;;;;;;;35.13;30.70;;;3.00;99.90;;;;;;4974078;28;20477;-83
2021/11/30 03:58:03;;;;;;;34.87;30.50;;;3.00;99.90;;;;;;4973398;28;20405;-83
2021/11/30 04:00:30;;;;;;;33.08;29.48;;;3.00;99.90;;;;;;4974425;28;20378;-85
2021/11/30 04:02:56;;;;;;;32.70;29.13;;;3.00;99.90;;;;;;4957471;28;20394;-85
2021/11/30 04:05:22;;;;;;;31.20;27.90;;;3.00;99.90;;;;;;4976437;28;20401;-82
2021/11/30 04:07:47;;;;;;;32.20;28.33;;;3.10;99.90;;;;;;4976154;28;20394;-86
2021/11/30 04:10:13;;;;;;;30.55;27.38;;;3.10;99.90;;;;;;4972869;28;20426;-84
2021/11/30 04:12:39;;;;;;;31.23;27.80;;;3.10;99.90;;;;;;4969861;28;20394;-85
2021/11/30 04:15:05;;;;;;;31.98;28.45;;;2.90;99.90;;;;;;4970107;28;20457;-83
2021/11/30 04:17:31;;;;;;;36.22;31.17;;;2.80;99.90;;;;;;4971913;28;20394;-84
2021/11/30 04:19:56;;;;;;;33.78;29.92;;;2.60;99.90;;;;;;4972089;28;20426;-84
2021/11/30 04:22:22;;;;;;;34.20;30.27;;;2.60;99.90;;;;;;4966621;28;20504;-84
2021/11/30 04:24:48;;;;;;;34.92;29.60;;;2.50;99.90;;;;;;4972725;28;20456;-83
2021/11/30 04:27:14;;;;;;;34.63;30.13;;;2.40;99.90;;;;;;4972674;28;20423;-84
2021/11/30 04:29:42;;;;;;;35.72;30.27;;;2.40;99.90;;;;;;4972977;28;20924;-82
2021/11/30 04:32:08;;;;;;;37.97;31.20;;;2.40;99.90;;;;;;4964449;28;20398;-84
2021/11/30 04:34:34;;;;;;;37.13;31.70;;;2.30;99.90;;;;;;4959458;28;20394;-84
2021/11/30 04:37:00;;;;;;;38.13;31.50;;;2.30;99.90;;;;;;4955302;28;20403;-83
2021/11/30 04:39:26;;;;;;;41.27;33.93;;;2.30;99.90;;;;;;4973376;28;20719;-82
2021/11/30 04:41:52;;;;;;;41.65;33.90;;;2.20;99.90;;;;;;4955993;28;20398;-85
2021/11/30 04:44:19;;;;;;;39.03;32.73;;;2.20;99.90;;;;;;4972489;28;20477;-83
2021/11/30 04:46:53;;;;;;;39.50;32.43;;;2.20;99.90;;;;;;4955884;28;20494;-83
2021/11/30 04:49:41;;;;;;;38.47;31.80;;;2.20;99.90;;;;;;4955933;28;20496;-84
2021/11/30 04:52:10;;;;;;;41.67;33.08;;;2.30;99.90;;;;;;4956792;28;20402;-84
2021/11/30 04:54:37;;;;;;;40.72;33.05;;;2.30;99.90;;;;;;4971545;28;20398;-86
2021/11/30 04:57:03;;;;;;;40.57;32.27;;;2.30;99.90;;;;;;4973060;28;20495;-82
2021/11/30 04:59:29;;;;;;;42.80;32.90;;;2.40;99.90;;;;;;4961288;28;21059;-85
2021/11/30 05:01:54;;;;;;;40.08;32.50;;;2.30;99.90;;;;;;4960391;28;20405;-83
2021/11/30 05:04:20;;;;;;;39.78;31.98;;;2.40;99.90;;;;;;4971990;28;20391;-84
2021/11/30 05:06:46;;;;;;;39.33;31.55;;;2.40;99.90;;;;;;4971802;28;20391;-82
2021/11/30 05:09:12;;;;;;;40.08;31.00;;;2.40;99.90;;;;;;4967828;28;21054;-84
2021/11/30 05:11:38;;;;;;;38.50;30.15;;;2.40;99.90;;;;;;4960829;28;20406;-83
2021/11/30 05:14:04;;;;;;;38.95;30.05;;;2.40;99.90;;;;;;4971340;28;20391;-82
2021/11/30 05:16:30;;;;;;;37.33;29.15;;;2.40;99.90;;;;;;4972074;28;20398;-85
2021/11/30 05:18:56;;;;;;;35.63;28.00;;;2.50;99.90;;;;;;4954896;28;20410;-85
2021/11/30 05:21:22;;;;;;;37.22;28.88;;;2.50;99.90;;;;;;4972203;28;20387;-84
2021/11/30 05:23:48;;;;;;;34.90;27.75;;;2.60;99.90;;;;;;4969848;28;20403;-85
2021/11/30 05:26:14;;;;;;;35.67;27.67;;;2.60;99.90;;;;;;4970568;28;20462;-83
2021/11/30 05:28:42;;;;;;;34.80;27.97;;;2.60;99.90;;;;;;4972275;28;20394;-85
2021/11/30 05:31:09;;;;;;;32.20;26.05;;;2.60;99.90;;;;;;4970345;28;20394;-83
2021/11/30 05:33:35;;;;;;;32.08;26.67;;;2.70;99.90;;;;;;4956926;28;20395;-85
2021/11/30 05:36:02;;;;;;;29.08;24.00;;;2.70;99.90;;;;;;4972048;28;20758;-83
2021/11/30 05:38:28;;;;;;;27.95;24.00;;;2.70;99.90;;;;;;4968772;28;20403;-83
2021/11/30 05:40:54;;;;;;;29.42;24.33;;;2.80;99.90;;;;;;4970009;28;20434;-81
2021/11/30 05:43:21;;;;;;;28.80;24.05;;;2.80;99.90;;;;;;4972277;28;20399;-83
2021/11/30 05:45:47;;;;;;;27.45;22.40;;;2.80;99.90;;;;;;4971465;28;20401;-84
2021/11/30 05:48:13;;;;;;;29.92;23.83;;;2.70;99.90;;;;;;4957349;28;20812;-83
2021/11/30 05:50:40;;;;;;;28.98;22.60;;;2.70;99.90;;;;;;4953870;28;20433;-84
2021/11/30 05:53:06;;;;;;;29.48;23.10;;;2.70;99.90;;;;;;4971753;28;20402;-85
2021/11/30 05:55:33;;;;;;;30.17;23.47;;;2.80;99.90;;;;;;4970050;28;20387;-86
2021/11/30 05:58:00;;;;;;;27.90;22.30;;;2.80;99.90;;;;;;4953932;28;20383;-85
2021/11/30 06:00:29;;;;;;;28.00;21.83;;;2.80;99.90;;;;;;4971536;28;20755;-84
2021/11/30 06:03:04;;;;;;;28.75;22.13;;;2.60;99.90;;;;;;4954157;28;20760;-82
2021/11/30 06:05:32;;;;;;;29.63;22.23;;;2.70;99.90;;;;;;4952929;28;20444;-83
2021/11/30 06:07:58;;;;;;;27.88;22.40;;;2.70;99.90;;;;;;4971191;28;20387;-84
2021/11/30 06:10:26;;;;;;;27.77;22.42;;;2.70;99.90;;;;;;4967229;28;20410;-84
2021/11/30 06:12:52;;;;;;;29.02;22.92;;;2.70;99.90;;;;;;4953645;28;20398;-84
2021/11/30 06:15:17;;;;;;;30.73;22.90;;;2.70;99.90;;;;;;4971086;28;20363;-84
2021/11/30 06:17:43;;;;;;;29.13;22.95;;;2.70;99.90;;;;;;4971096;28;20393;-83
2021/11/30 06:20:11;;;;;;;28.60;22.70;;;2.60;99.90;;;;;;4970579;28;20797;-84
2021/11/30 06:22:37;;;;;;;29.92;22.73;;;2.70;99.90;;;;;;4953577;28;20390;-82
2021/11/30 06:25:05;;;;;;;31.08;23.55;;;2.70;99.90;;;;;;4970498;28;20469;-83
2021/11/30 06:27:31;;;;;;;28.90;23.08;;;2.60;99.90;;;;;;4970552;28;20406;-85
2021/11/30 06:29:57;;;;;;;28.67;23.20;;;2.70;99.90;;;;;;4970808;28;20909;-87
2021/11/30 06:32:24;;;;;;;30.00;24.50;;;2.70;99.90;;;;;;4970600;28;20422;-84
2021/11/30 06:34:50;;;;;;;31.97;23.23;;;2.70;99.90;;;;;;4953572;28;20443;-87
2021/11/30 06:37:16;;;;;;;31.60;24.52;;;2.70;99.90;;;;;;4970857;28;20411;-83
2021/11/30 06:39:41;;;;;;;31.45;24.95;;;2.60;99.90;;;;;;4970190;28;21177;-85
2021/11/30 06:42:07;;;;;;;31.77;24.55;;;2.60;99.90;;;;;;4953152;28;20812;-83
2021/11/30 06:44:35;;;;;;;29.90;22.58;;;2.60;99.90;;;;;;4953276;28;20893;-84
2021/11/30 06:47:02;;;;;;;27.40;22.35;;;2.60;99.90;;;;;;4952721;28;20828;-83
2021/11/30 06:49:28;;;;;;;28.75;22.95;;;2.70;99.90;;;;;;4968397;28;20513;-83
2021/11/30 06:51:54;;;;;;;29.90;22.97;;;2.60;99.90;;;;;;4968978;28;20473;-84
2021/11/30 06:54:20;;;;;;;25.08;20.92;;;2.60;99.90;;;;;;4970235;28;20737;-82
2021/11/30 06:56:45;;;;;;;23.75;20.63;;;2.60;99.90;;;;;;4953009;28;20415;-84
2021/11/30 06:59:11;;;;;;;26.63;21.67;;;2.70;99.90;;;;;;4970755;28;20437;-84
2021/11/30 07:01:37;;;;;;;24.40;20.65;;;2.70;99.90;;;;;;4953254;28;20905;-83
2021/11/30 07:04:04;;;;;;;24.90;21.27;;;2.70;99.90;;;;;;4954170;28;20561;-84
2021/11/30 07:09:19;;;;;;;25.73;21.13;;;2.70;99.90;;;;;;4970423;28;20420;-84
2021/11/30 07:14:10;;;;;;;22.98;19.70;;;2.70;99.90;;;;;;4970335;28;20382;-82
2021/11/30 07:16:36;;;;;;;24.80;20.23;;;2.80;99.90;;;;;;4971947;28;20421;-83
2021/11/30 07:19:03;;;;;;;23.33;19.20;;;2.90;99.90;;;;;;4959415;28;20486;-82
2021/11/30 07:21:29;;;;;;;21.70;18.73;;;2.90;99.90;;;;;;4975348;28;20392;-83
2021/11/30 07:23:56;;;;;;;24.02;18.85;;;2.80;99.90;;;;;;4959233;28;21152;-87
2021/11/30 07:26:22;;;;;;;23.08;18.63;;;2.90;99.90;;;;;;4959231;28;20454;-83
2021/11/30 07:28:48;;;;;;;20.15;17.40;;;2.90;99.90;;;;;;4976645;28;20457;-85
2021/11/30 07:31:16;;;;;;;22.08;18.50;;;2.90;99.90;;;;;;4976376;28;20797;-82
2021/11/30 07:33:47;;;;;;;20.98;17.60;;;2.90;99.90;;;;;;4976680;28;20378;-87
2021/11/30 07:36:15;;;;;;;19.27;16.60;;;2.90;99.90;;;;;;4958571;28;20406;-82
2021/11/30 07:38:43;;;;;;;20.38;17.23;;;2.80;99.90;;;;;;4976745;28;20382;-85
2021/11/30 07:41:09;;;;;;;19.60;17.27;;;2.60;99.90;;;;;;4958845;28;20959;-85
2021/11/30 07:43:35;;;;;;;20.23;17.17;;;2.70;99.90;;;;;;4976481;28;20378;-82
2021/11/30 07:46:01;;;;;;;19.08;16.77;;;2.70;99.90;;;;;;4958132;28;20460;-85
2021/11/30 07:48:28;;;;;;;19.98;17.38;;;2.70;99.90;;;;;;4958890;28;20810;-83
2021/11/30 07:50:56;;;;;;;20.38;17.73;;;2.60;99.90;;;;;;4976058;28;20406;-83
2021/11/30 07:53:23;;;;;;;20.67;17.92;;;2.60;99.90;;;;;;4959106;28;20413;-83
2021/11/30 07:55:49;;;;;;;22.08;17.70;;;2.60;99.90;;;;;;4976394;28;20432;-84
2021/11/30 07:58:15;;;;;;;20.60;17.75;;;2.70;99.90;;;;;;4959264;28;20901;-84
2021/11/30 08:00:41;;;;;;;20.65;18.45;;;2.60;99.90;;;;;;4976390;28;20466;-82
2021/11/30 08:03:07;;;;;;;21.07;18.73;;;2.70;99.90;;;;;;4976051;28;20394;-82
2021/11/30 08:05:33;;;;;;;23.30;19.25;;;2.70;99.90;;;;;;4958977;28;20753;-83
2021/11/30 08:07:59;;;;;;;21.63;18.92;;;2.70;99.90;;;;;;4976367;28;20879;-83
2021/11/30 08:10:28;;;;;;;19.88;17.25;;;2.70;99.90;;;;;;4958425;28;20407;-83
2021/11/30 08:12:54;;;;;;;20.52;17.92;;;2.80;99.90;;;;;;4958816;28;20828;-83
2021/11/30 08:15:20;;;;;;;22.33;18.50;;;2.80;99.90;;;;;;4958514;28;20529;-82
2021/11/30 08:17:46;;;;;;;19.57;17.43;;;2.80;99.90;;;;;;4958795;28;20385;-84
2021/11/30 08:20:12;;;;;;;22.63;18.73;;;2.80;99.90;;;;;;4975732;28;20390;-83
2021/11/30 08:22:39;;;;;;;21.17;17.65;;;2.80;99.90;;;;;;4958891;28;20391;-85
2021/11/30 08:25:06;;;;;;;20.83;18.02;;;2.80;99.90;;;;;;4958952;28;20398;-83
2021/11/30 08:27:32;;;;;;;21.02;17.48;;;2.90;99.90;;;;;;4975970;28;20387;-82
2021/11/30 08:29:59;;;;;;;18.92;16.92;;;3.00;99.90;;;;;;4972956;28;20410;-82
2021/11/30 08:32:25;;;;;;;18.90;16.90;;;2.90;99.90;;;;;;4955741;28;20398;-85
2021/11/30 08:34:54;;;;;;;18.50;16.42;;;2.90;99.90;;;;;;4955518;28;20410;-83
2021/11/30 08:37:21;;;;;;;19.05;17.05;;;2.90;99.90;;;;;;4955588;28;21000;-81
2021/11/30 08:39:52;;;;;;;18.80;16.30;;;3.10;99.90;;;;;;4973130;28;20379;-85
2021/11/30 08:42:19;;;;;;;18.83;16.70;;;3.00;99.90;;;;;;4955577;28;20390;-85
2021/11/30 08:44:47;;;;;;;19.05;17.00;;;3.00;99.90;;;;;;4954841;28;20430;-84
2021/11/30 08:47:15;;;;;;;18.83;16.15;;;2.90;99.90;;;;;;4972240;28;20480;-82
2021/11/30 08:49:41;;;;;;;17.95;15.90;;;3.00;99.90;;;;;;4973481;28;20403;-83
2021/11/30 08:52:12;;;;;;;17.52;15.55;;;3.10;99.90;;;;;;4954834;28;20394;-83
2021/11/30 08:54:38;;;;;;;18.80;15.25;;;3.10;99.90;;;;;;4974374;28;20395;-85
2021/11/30 08:57:06;;;;;;;16.42;14.73;;;3.20;99.90;;;;;;4972822;28;20390;-82
2021/11/30 08:59:32;;;;;;;16.50;14.70;;;3.20;99.90;;;;;;4972290;28;20829;-85
2021/11/30 09:01:58;;;;;;;16.42;14.73;;;3.30;99.90;;;;;;4955340;28;20441;-83
2021/11/30 09:04:24;;;;;;;16.05;14.43;;;3.30;99.90;;;;;;4972531;28;20379;-83
2021/11/30 09:06:50;;;;;;;16.97;15.07;;;3.30;99.90;;;;;;4972532;28;21232;-83
2021/11/30 09:09:16;;;;;;;17.00;15.37;;;3.30;99.90;;;;;;4971770;28;20423;-84
2021/11/30 09:11:42;;;;;;;17.40;15.57;;;3.40;99.90;;;;;;4972970;28;20952;-84
2021/11/30 09:14:09;;;;;;;16.95;15.15;;;3.40;99.90;;;;;;4954889;28;20766;-84
2021/11/30 09:16:35;;;;;;;16.00;14.30;;;3.50;99.90;;;;;;4954956;28;20928;-82
2021/11/30 09:19:02;;;;;;;15.18;13.50;;;3.60;99.90;;;;;;4972396;28;20393;-82
2021/11/30 09:21:28;;;;;;;15.68;14.18;;;3.60;99.90;;;;;;4972433;28;20391;-85
2021/11/30 09:23:56;;;;;;;14.77;13.47;;;3.70;99.90;;;;;;4972493;28;20382;-82
2021/11/30 09:26:22;;;;;;;14.38;12.88;;;3.80;99.90;;;;;;4955559;28;20387;-85
2021/11/30 09:28:48;;;;;;;14.15;12.75;;;3.90;99.90;;;;;;4954618;28;20402;-85
2021/11/30 09:31:15;;;;;;;13.88;12.60;;;4.00;99.90;;;;;;4972526;28;20374;-83
2021/11/30 09:33:43;;;;;;;12.68;11.65;;;4.00;99.90;;;;;;4972137;28;20429;-84
2021/11/30 09:36:10;;;;;;;13.32;12.02;;;4.10;99.90;;;;;;4953682;28;20494;-85
2021/11/30 09:38:37;;;;;;;12.93;11.83;;;4.10;99.90;;;;;;4954646;28;20908;-83
2021/11/30 09:41:03;;;;;;;12.77;11.68;;;4.20;99.90;;;;;;4970910;28;20485;-84
2021/11/30 09:43:32;;;;;;;13.18;12.18;;;4.20;99.90;;;;;;4954435;28;20415;-83
2021/11/30 09:46:00;;;;;;;12.52;11.27;;;4.30;99.90;;;;;;4954074;28;20759;-83
2021/11/30 09:48:28;;;;;;;12.95;11.85;;;4.30;99.90;;;;;;4969456;28;20793;-85
2021/11/30 09:50:54;;;;;;;12.38;11.20;;;4.40;99.90;;;;;;4951676;28;20455;-83
2021/11/30 09:53:20;;;;;;;12.30;11.30;;;4.40;99.90;;;;;;4938428;28;20390;-83
2021/11/30 09:55:47;;;;;;;12.32;11.23;;;4.40;99.90;;;;;;4970607;28;20386;-83
2021/11/30 09:58:14;;;;;;;12.02;10.52;;;4.40;99.90;;;;;;4970859;28;20422;-83
2021/11/30 10:00:42;;;;;;;12.10;10.85;;;4.50;99.90;;;;;;4971081;28;20386;-82
2021/11/30 10:03:09;;;;;;;12.13;11.13;;;4.50;99.90;;;;;;4953544;28;20406;-86
2021/11/30 10:05:35;;;;;;;10.93;10.02;;;4.60;99.90;;;;;;4971053;28;20398;-86
2021/11/30 10:08:02;;;;;;;10.77;9.75;;;4.70;99.90;;;;;;4970669;28;20402;-84
2021/11/30 10:10:35;;;;;;;10.13;9.18;;;4.70;99.90;;;;;;4970448;28;21153;-82
2021/11/30 10:13:04;;;;;;;11.07;10.18;;;4.80;99.90;;;;;;4970856;28;20430;-83
2021/11/30 10:15:33;;;;;;;11.02;9.88;;;4.70;99.90;;;;;;4953778;28;21085;-83
2021/11/30 10:18:20;;;;;;;9.60;8.80;;;4.80;99.90;;;;;;4970928;28;20507;-84
2021/11/30 10:20:48;;;;;;;8.50;7.80;;;4.80;99.90;;;;;;4970033;28;20399;-82
2021/11/30 10:23:17;;;;;;;8.47;7.77;;;4.90;99.90;;;;;;4952788;28;20398;-82
2021/11/30 10:25:46;;;;;;;7.65;6.90;;;4.90;99.90;;;;;;4970746;28;20422;-81
2021/11/30 10:28:16;;;;;;;7.00;6.30;;;5.00;99.90;;;;;;4968995;28;20409;-83
2021/11/30 10:30:49;;;;;;;7.40;6.70;;;5.10;99.90;;;;;;4953284;28;20406;-82
2021/11/30 10:33:17;;;;;;;6.57;5.97;;;5.10;99.90;;;;;;4970158;28;20385;-81
2021/11/30 10:35:53;;;;;;;7.45;6.60;;;5.20;99.90;;;;;;4970395;28;20401;-86
2021/11/30 10:38:19;;;;;;;6.68;6.07;;;5.20;99.90;;;;;;4953447;28;20379;-82
2021/11/30 10:40:45;;;;;;;6.28;5.63;;;5.30;99.90;;;;;;4968943;28;20449;-85
2021/11/30 10:43:12;;;;;;;6.30;5.72;;;5.40;99.90;;;;;;4970337;28;20375;-84
2021/11/30 10:45:45;;;;;;;5.72;5.13;;;5.40;99.90;;;;;;4970022;28;20415;-83
2021/11/30 10:48:20;;;;;;;6.10;4.80;;;5.30;99.90;;;;;;4952541;28;20402;-82
2021/11/30 10:50:51;;;;;;;4.95;4.45;;;5.30;99.90;;;;;;4960574;28;21215;-83
2021/11/30 10:53:24;;;;;;;5.20;4.70;;;5.40;99.90;;;;;;4949679;28;20404;-81
2021/11/30 10:55:55;;;;;;;5.10;4.30;;;5.50;99.90;;;;;;4970238;28;20394;-83
2021/11/30 10:58:35;;;;;;;5.03;4.00;;;5.60;99.90;;;;;;4969715;28;20405;-85
2021/11/30 11:01:07;;;;;;;4.80;3.60;;;5.70;99.90;;;;;;4951902;28;20401;-82
2021/11/30 11:03:33;;;;;;;3.88;3.47;;;5.70;99.90;;;;;;4968892;28;20394;-83
2021/11/30 11:08:57;;;;;;;3.88;2.92;;;5.60;99.90;;;;;;4971738;28;20394;-83
2021/11/30 11:11:28;;;;;;;4.30;3.13;;;5.60;99.90;;;;;;4953222;28;20406;-83
2021/11/30 11:13:55;;;;;;;4.38;3.50;;;5.60;99.90;;;;;;4952312;28;20523;-86
2021/11/30 11:16:32;;;;;;;4.20;3.43;;;5.70;99.90;;;;;;4952613;28;20452;-86
2021/11/30 11:19:01;;;;;;;4.15;3.25;;;5.70;99.90;;;;;;4951941;28;20393;-82
2021/11/30 11:21:36;;;;;;;3.73;2.80;;;5.80;99.90;;;;;;4960715;28;20395;-84
2021/11/30 11:24:15;;;;;;;5.70;2.73;;;5.90;99.90;;;;;;4963868;28;20518;-83
2021/11/30 11:26:48;;;;;;;3.47;2.40;;;5.90;99.90;;;;;;4969758;28;20740;-83
2021/11/30 11:29:18;;;;;;;4.93;2.90;;;5.80;99.90;;;;;;4969904;28;20418;-82
2021/11/30 11:31:48;;;;;;;3.50;3.10;;;5.90;99.90;;;;;;4952727;28;20753;-82
2021/11/30 11:34:17;;;;;;;3.67;3.03;;;5.80;99.90;;;;;;4969528;28;20384;-83
2021/11/30 11:36:45;;;;;;;6.03;3.80;;;5.80;99.90;;;;;;4952182;28;20445;-82
2021/11/30 11:39:16;;;;;;;5.20;4.10;;;5.80;99.90;;;;;;4969547;28;20398;-85
2021/11/30 11:41:42;;;;;;;8.50;4.82;;;5.80;99.90;;;;;;4952116;28;20418;-86
2021/11/30 11:44:08;;;;;;;6.90;5.15;;;5.80;99.90;;;;;;4968824;28;20869;-82
2021/11/30 11:46:37;;;;;;;7.30;5.00;;;5.80;99.90;;;;;;4968393;28;20418;-83
2021/11/30 11:49:06;;;;;;;6.65;3.03;;;5.70;99.90;;;;;;4968779;28;20401;-81
2021/11/30 11:51:47;;;;;;;9.35;3.40;;;5.60;99.90;;;;;;4970084;28;20920;-83
2021/11/30 11:54:32;;;;;;;11.20;2.77;;;5.60;99.90;;;;;;4970331;28;20417;-83
2021/11/30 11:57:10;;;;;;;12.57;3.35;;;5.50;99.90;;;;;;4965032;28;20473;-85
2021/11/30 11:59:45;;;;;;;11.00;2.40;;;5.30;99.90;;;;;;4969638;28;20400;-85
2021/11/30 12:02:20;;;;;;;9.50;2.75;;;5.30;99.90;;;;;;4969996;28;20809;-85
2021/11/30 12:04:59;;;;;;;10.55;3.10;;;5.30;99.90;;;;;;4956199;28;20398;-79
2021/11/30 12:07:27;;;;;;;7.55;2.10;;;5.30;99.90;;;;;;4956058;28;20427;-82
2021/11/30 12:10:26;;;;;;;9.52;2.22;;;5.40;99.90;;;;;;4973026;28;20406;-85
2021/11/30 12:12:55;;;;;;;4.75;2.60;;;5.40;99.90;;;;;;4915922;28;20914;-83
2021/11/30 12:15:23;;;;;;;8.52;2.70;;;5.50;99.90;;;;;;4953933;28;20395;-83
2021/11/30 12:17:49;;;;;;;9.18;4.10;;;5.50;99.90;;;;;;4954901;28;20401;-82
2021/11/30 12:20:14;;;;;;;11.88;4.03;;;5.60;99.90;;;;;;4972487;28;20481;-84
2021/11/30 12:22:59;;;;;;;11.80;4.50;;;5.70;99.90;;;;;;4972967;28;20485;-81
2021/11/30 12:25:45;;;;;;;12.77;3.90;;;5.90;99.90;;;;;;4972836;28;20379;-82
2021/11/30 12:28:31;;;;;;;13.50;4.20;;;6.00;99.90;;;;;;4956362;28;20403;-83
2021/11/30 12:30:58;;;;;;;13.88;3.72;;;6.10;99.90;;;;;;4955363;28;20484;-81
2021/11/30 12:33:30;;;;;;;12.35;4.03;;;6.10;99.90;;;;;;4955521;28;20402;-85
2021/11/30 12:36:00;;;;;;;17.65;4.47;;;6.10;99.90;;;;;;4973194;28;20534;-83
2021/11/30 12:38:37;;;;;;;16.25;4.38;;;6.30;99.90;;;;;;4971742;28;20404;-82
2021/11/30 12:41:24;;;;;;;14.90;4.65;;;6.20;99.90;;;;;;4955486;28;20490;-83
2021/11/30 12:43:52;;;;;;;15.87;4.50;;;6.30;99.90;;;;;;4972915;28;20378;-84
2021/11/30 12:46:35;;;;;;;16.52;4.40;;;6.20;99.90;;;;;;4954595;28;20481;-85
2021/11/30 12:49:21;;;;;;;17.75;4.53;;;6.30;99.90;;;;;;4973317;28;20438;-84
2021/11/30 12:51:49;;;;;;;19.83;4.72;;;6.30;99.90;;;;;;4972398;28;21174;-84
2021/11/30 12:54:23;;;;;;;18.52;4.45;;;6.30;99.90;;;;;;4956263;28;20398;-83
2021/11/30 12:56:51;;;;;;;16.10;4.35;;;6.40;99.90;;;;;;4956043;28;20393;-82
2021/11/30 12:59:40;;;;;;;19.20;5.13;;;6.40;99.90;;;;;;4973411;28;20374;-86
2021/11/30 13:02:21;;;;;;;18.58;5.00;;;6.40;99.90;;;;;;4937226;28;20964;-84